Skip Navigation LinksHome page > Weather > Current weather Skip Navigation Links

Current Weather

Stafford Regional, Stafford, Va.

For information only: do not use for flight planning or navigation.
Latest weather
Observation time Wednesday, January 27, 2021 12:35 PM EST
Local time Wednesday, January 27, 2021 12:51 PM EST
Flight conditions Visual Meteorological Conditions
Winds
Wind direction North-Northwest (330°)
Wind speed 20 mph
Wind gusting to 25 mph
Visibility 10 mi.
Sky condition
Ceiling unlimited
Sky clear
Temperature 45°F
Dewpoint 24°F
Altimeter 30.12 in.Hg
Derived measurements
Relative humidity 44%
Wind chill 37°F
Density altitude -870 ft.
Remarks
Fully automated report.
Automated weather observing station with precipitation discriminator.
METAR KRMN 271735Z AUTO 33017G22KT 10SM CLR 07/M04 A3012 RMK AO2 T00731042

Settings

Location code

InnerDrive.Weather 4.0.6770.0 Release CLR 4.0.30319.42000
Copyright ©2018 Inner Drive Technology. All rights reserved. Portions Copyright ©1986-2018 David Braverman.

Find weather

Site navigation


Skip Navigation Links

Place info

Page info

PayPal - The safer, easier way to pay online!

Return home.

Copyright ©2021 Inner Drive Technology. Purveyors of fine, hand-crafted computer software. Page printed 2021-01-27T17:51:23 UTC.